Time,TemperatureF,DewpointF,PressureIn,WindDirection,WindDirectionDegrees,WindSpeedMPH,WindSpeedGustMPH,Humidity,HourlyPrecipIn,Conditions,Clouds,dailyrainin,SoftwareType,DateUTC
2013-09-05 00:13:00,66.9,64.0,29.96,West,273,1.0,7.0,90,0.00,,,0.00,weatherlink.com 1.10,2013-09-05 04:13:00,
2013-09-05 00:28:00,67.0,64.0,29.95,West,267,0.0,5.0,91,0.00,,,0.00,weatherlink.com 1.10,2013-09-05 04:28:00,
2013-09-05 00:43:00,67.1,65.0,29.95,West,260,0.0,4.0,91,0.00,,,0.00,weatherlink.com 1.10,2013-09-05 04:43:00,
2013-09-05 00:58:00,67.1,65.0,29.95,West,277,0.0,4.0,91,0.00,,,0.00,weatherlink.com 1.10,2013-09-05 04:58:00,
2013-09-05 01:13:00,67.3,65.0,29.94,WNW,294,0.0,7.0,91,0.00,,,0.00,weatherlink.com 1.10,2013-09-05 05:13:00,
2013-09-05 01:28:00,67.0,64.0,29.93,West,264,1.0,4.0,91,0.00,,,0.00,weatherlink.com 1.10,2013-09-05 05:28:00,
2013-09-05 01:43:00,67.0,64.0,29.93,West,281,0.0,4.0,91,0.00,,,0.00,weatherlink.com 1.10,2013-09-05 05:43:00,
2013-09-05 01:58:00,66.8,64.0,29.93,WSW,258,3.0,5.0,91,0.00,,,0.00,weatherlink.com 1.10,2013-09-05 05:58:00,
2013-09-05 02:13:00,67.0,64.0,29.93,West,276,2.0,6.0,91,0.00,,,0.00,weatherlink.com 1.10,2013-09-05 06:13:00,
2013-09-05 02:28:00,67.4,64.0,29.92,NW,314,3.0,4.0,89,0.00,,,0.00,weatherlink.com 1.10,2013-09-05 06:28:00,
2013-09-05 02:43:00,67.4,64.0,29.92,WNW,284,2.0,6.0,89,0.00,,,0.00,weatherlink.com 1.10,2013-09-05 06:43:00,
2013-09-05 02:58:00,67.8,64.0,29.91,WNW,286,1.0,7.0,88,0.00,,,0.00,weatherlink.com 1.10,2013-09-05 06:58:00,
2013-09-05 03:13:00,67.2,64.0,29.91,WNW,291,2.0,4.0,89,0.00,,,0.00,weatherlink.com 1.10,2013-09-05 07:13:00,
2013-09-05 03:28:00,66.8,64.0,29.91,West,268,0.0,4.0,90,0.00,,,0.00,weatherlink.com 1.10,2013-09-05 07:28:00,
2013-09-05 03:43:00,66.6,64.0,29.92,West,273,3.0,5.0,91,0.00,,,0.00,weatherlink.com 1.10,2013-09-05 07:43:00,
2013-09-05 03:58:00,66.5,64.0,29.92,West,274,1.0,4.0,91,0.00,,,0.00,weatherlink.com 1.10,2013-09-05 07:58:00,
2013-09-05 04:13:00,66.3,64.0,29.92,WNW,285,0.0,6.0,91,0.00,,,0.00,weatherlink.com 1.10,2013-09-05 08:13:00,
2013-09-05 04:28:00,66.6,64.0,29.92,WNW,286,2.0,5.0,91,0.00,,,0.00,weatherlink.com 1.10,2013-09-05 08:28:00,
2013-09-05 04:43:00,66.5,64.0,29.92,West,281,1.0,5.0,91,0.00,,,0.00,weatherlink.com 1.10,2013-09-05 08:43:00,
2013-09-05 04:58:00,66.1,64.0,29.91,West,278,1.0,3.0,91,0.00,,,0.00,weatherlink.com 1.10,2013-09-05 08:58:00,
2013-09-05 05:13:00,65.6,63.0,29.92,WNW,293,3.0,3.0,92,0.00,,,0.00,weatherlink.com 1.10,2013-09-05 09:13:00,
2013-09-05 05:28:00,65.3,63.0,29.92,West,278,1.0,5.0,92,0.00,,,0.00,weatherlink.com 1.10,2013-09-05 09:28:00,
2013-09-05 05:43:00,65.4,63.0,29.91,West,278,0.0,4.0,92,0.00,,,0.00,weatherlink.com 1.10,2013-09-05 09:43:00,
2013-09-05 05:58:00,65.9,63.0,29.91,West,261,3.0,6.0,91,0.00,,,0.00,weatherlink.com 1.10,2013-09-05 09:58:00,
2013-09-05 06:13:00,66.6,64.0,29.92,West,281,1.0,7.0,90,0.00,,,0.00,weatherlink.com 1.10,2013-09-05 10:13:00,
2013-09-05 06:28:00,66.6,64.0,29.92,WSW,256,2.0,5.0,90,0.00,,,0.00,weatherlink.com 1.10,2013-09-05 10:28:00,
2013-09-05 06:43:00,66.5,63.0,29.92,WNW,290,2.0,5.0,89,0.00,,,0.00,weatherlink.com 1.10,2013-09-05 10:43:00,
2013-09-05 06:58:00,67.2,64.0,29.92,West,273,1.0,5.0,89,0.00,,,0.00,weatherlink.com 1.10,2013-09-05 10:58:00,
2013-09-05 07:13:00,68.3,64.0,29.92,NW,305,3.0,7.0,87,0.00,,,0.00,weatherlink.com 1.10,2013-09-05 11:13:00,
2013-09-05 07:28:00,69.0,65.0,29.92,West,281,2.0,9.0,86,0.00,,,0.00,weatherlink.com 1.10,2013-09-05 11:28:00,
2013-09-05 07:43:00,69.6,65.0,29.92,WNW,283,3.0,8.0,86,0.00,,,0.00,weatherlink.com 1.10,2013-09-05 11:43:00,
2013-09-05 07:58:00,70.1,65.0,29.93,WNW,282,5.0,10.0,85,0.00,,,0.00,weatherlink.com 1.10,2013-09-05 11:58:00,
2013-09-05 08:14:00,70.8,65.0,29.93,WSW,244,6.0,11.0,83,0.00,,,0.00,weatherlink.com 1.10,2013-09-05 12:14:00,
2013-09-05 08:29:00,71.4,66.0,29.92,NW,307,3.0,9.0,83,0.00,,,0.00,weatherlink.com 1.10,2013-09-05 12:29:00,
2013-09-05 08:44:00,71.7,66.0,29.93,West,259,6.0,10.0,83,0.00,,,0.00,weatherlink.com 1.10,2013-09-05 12:44:00,
2013-09-05 08:59:00,71.8,66.0,29.93,WNW,302,3.0,9.0,81,0.00,,,0.00,weatherlink.com 1.10,2013-09-05 12:59:00,
2013-09-05 09:14:00,71.8,67.0,29.93,SSW,195,1.0,10.0,84,0.00,,,0.00,weatherlink.com 1.10,2013-09-05 13:14:00,
2013-09-05 09:29:00,72.1,67.0,29.94,WSW,247,6.0,9.0,83,0.00,,,0.00,weatherlink.com 1.10,2013-09-05 13:29:00,
2013-09-05 09:44:00,71.5,66.0,29.94,WSW,249,7.0,10.0,83,0.00,,,0.00,weatherlink.com 1.10,2013-09-05 13:44:00,
2013-09-05 09:59:00,71.3,66.0,29.95,NNW,346,3.0,7.0,83,0.00,,,0.00,weatherlink.com 1.10,2013-09-05 13:59:00,
2013-09-05 10:14:00,70.2,66.0,29.96,WNW,297,3.0,9.0,85,0.00,,,0.00,weatherlink.com 1.10,2013-09-05 14:14:00,
2013-09-05 10:29:00,69.9,66.0,29.96,West,274,4.0,7.0,87,0.00,,,0.00,weatherlink.com 1.10,2013-09-05 14:29:00,
2013-09-05 10:44:00,70.4,65.0,29.96,NNW,329,2.0,6.0,84,0.00,,,0.00,weatherlink.com 1.10,2013-09-05 14:44:00,
2013-09-05 10:59:00,70.3,63.0,29.96,NNW,327,6.0,10.0,78,0.00,,,0.00,weatherlink.com 1.10,2013-09-05 14:59:00,
2013-09-05 11:14:00,70.2,63.0,29.96,North,354,1.0,8.0,79,0.00,,,0.00,weatherlink.com 1.10,2013-09-05 15:14:00,
2013-09-05 11:29:00,68.7,62.0,29.96,NNW,338,3.0,9.0,80,0.00,,,0.00,weatherlink.com 1.10,2013-09-05 15:29:00,
2013-09-05 11:44:00,69.1,63.0,29.96,NNW,345,4.0,9.0,80,0.00,,,0.00,weatherlink.com 1.10,2013-09-05 15:44:00,
2013-09-05 11:59:00,70.3,63.0,29.96,North,360,7.0,10.0,77,0.00,,,0.00,weatherlink.com 1.10,2013-09-05 15:59:00,
2013-09-05 12:14:00,70.2,63.0,29.95,North,359,3.0,15.0,77,0.00,,,0.00,weatherlink.com 1.10,2013-09-05 16:14:00,
2013-09-05 12:29:00,69.2,62.0,29.95,NNW,328,5.0,8.0,79,0.00,,,0.00,weatherlink.com 1.10,2013-09-05 16:29:00,
2013-09-05 12:44:00,69.9,64.0,29.96,North,1,1.0,8.0,80,0.00,,,0.00,weatherlink.com 1.10,2013-09-05 16:44:00,
2013-09-05 12:59:00,69.9,64.0,29.96,NNE,24,6.0,11.0,80,0.00,,,0.00,weatherlink.com 1.10,2013-09-05 16:59:00,
2013-09-05 13:14:00,70.2,64.0,29.96,North,1,1.0,5.0,80,0.00,,,0.00,weatherlink.com 1.10,2013-09-05 17:14:00,
2013-09-05 13:29:00,69.5,63.0,29.97,North,4,4.0,9.0,81,0.00,,,0.00,weatherlink.com 1.10,2013-09-05 17:29:00,
2013-09-05 13:44:00,68.0,62.0,29.97,NNE,27,2.0,5.0,82,0.00,,,0.00,weatherlink.com 1.10,2013-09-05 17:44:00,
2013-09-05 13:59:00,68.2,63.0,29.97,East,84,2.0,6.0,82,0.00,,,0.00,weatherlink.com 1.10,2013-09-05 17:59:00,
2013-09-05 14:14:00,68.4,62.0,29.98,NE,47,4.0,9.0,81,0.00,,,0.00,weatherlink.com 1.10,2013-09-05 18:14:00,
2013-09-05 14:29:00,69.2,63.0,29.97,NW,314,0.0,7.0,81,0.00,,,0.00,weatherlink.com 1.10,2013-09-05 18:29:00,
2013-09-05 14:44:00,68.9,63.0,29.98,North,6,1.0,6.0,80,0.00,,,0.00,weatherlink.com 1.10,2013-09-05 18:44:00,
2013-09-05 14:59:00,68.8,63.0,29.98,NNE,17,5.0,8.0,82,0.00,,,0.00,weatherlink.com 1.10,2013-09-05 18:59:00,
2013-09-05 15:14:00,69.2,62.0,29.98,ENE,62,1.0,6.0,78,0.00,,,0.00,weatherlink.com 1.10,2013-09-05 19:14:00,
2013-09-05 15:29:00,69.4,63.0,29.98,ESE,117,1.0,8.0,79,0.00,,,0.00,weatherlink.com 1.10,2013-09-05 19:29:00,
2013-09-05 15:44:00,68.6,63.0,29.98,ESE,103,2.0,5.0,81,0.00,,,0.00,weatherlink.com 1.10,2013-09-05 19:44:00,
2013-09-05 15:59:00,69.1,62.0,29.98,ENE,65,1.0,4.0,79,0.00,,,0.00,weatherlink.com 1.10,2013-09-05 19:59:00,
2013-09-05 16:14:00,68.3,61.0,29.98,North,1,0.0,8.0,77,0.00,,,0.00,weatherlink.com 1.10,2013-09-05 20:14:00,
2013-09-05 16:29:00,67.6,62.0,29.99,ENE,63,2.0,11.0,81,0.00,,,0.00,weatherlink.com 1.10,2013-09-05 20:29:00,
2013-09-05 16:44:00,67.0,61.0,30.00,NNE,27,0.0,7.0,81,0.00,,,0.00,weatherlink.com 1.10,2013-09-05 20:44:00,
2013-09-05 16:59:00,66.2,60.0,30.01,NE,49,3.0,6.0,81,0.00,,,0.00,weatherlink.com 1.10,2013-09-05 20:59:00,
2013-09-05 17:14:00,65.0,59.0,30.01,North,1,0.0,8.0,82,0.00,,,0.00,weatherlink.com 1.10,2013-09-05 21:14:00,
2013-09-05 17:29:00,64.0,59.0,30.02,NNE,32,2.0,6.0,84,0.00,,,0.00,weatherlink.com 1.10,2013-09-05 21:29:00,
2013-09-05 17:45:00,63.4,59.0,30.02,ENE,60,2.0,4.0,86,0.00,,,0.00,weatherlink.com 1.10,2013-09-05 21:45:00,
2013-09-05 18:00:00,62.7,59.0,30.03,North,8,0.0,7.0,87,0.00,,,0.00,weatherlink.com 1.10,2013-09-05 22:00:00,
2013-09-05 18:15:00,61.7,58.0,30.04,NE,37,1.0,4.0,88,0.01,,,0.01,weatherlink.com 1.10,2013-09-05 22:15:00,
2013-09-05 18:30:00,60.9,58.0,30.04,NE,53,1.0,4.0,89,0.02,,,0.02,weatherlink.com 1.10,2013-09-05 22:30:00,
2013-09-05 18:45:00,60.5,58.0,30.04,NNE,26,0.0,3.0,91,0.02,,,0.02,weatherlink.com 1.10,2013-09-05 22:45:00,
2013-09-05 19:00:00,60.4,58.0,30.04,NNE,30,0.0,2.0,91,0.02,,,0.02,weatherlink.com 1.10,2013-09-05 23:00:00,
2013-09-05 19:15:00,60.2,58.0,30.05,NE,54,0.0,2.0,91,0.01,,,0.02,weatherlink.com 1.10,2013-09-05 23:15:00,
2013-09-05 19:30:00,59.9,58.0,30.05,NE,54,0.0,0.0,92,0.00,,,0.02,weatherlink.com 1.10,2013-09-05 23:30:00,
2013-09-05 19:45:00,59.6,58.0,30.06,NE,54,0.0,0.0,93,0.00,,,0.02,weatherlink.com 1.10,2013-09-05 23:45:00,
2013-09-05 20:00:00,59.1,57.0,30.07,NE,54,0.0,1.0,93,0.00,,,0.02,weatherlink.com 1.10,2013-09-06 00:00:00,
2013-09-05 20:15:00,58.3,56.0,30.07,NE,54,0.0,1.0,93,0.00,,,0.02,weatherlink.com 1.10,2013-09-06 00:15:00,
2013-09-05 20:30:00,57.6,56.0,30.07,NE,54,0.0,0.0,94,0.00,,,0.02,weatherlink.com 1.10,2013-09-06 00:30:00,
2013-09-05 20:45:00,56.8,55.0,30.08,NE,54,0.0,1.0,94,0.00,,,0.02,weatherlink.com 1.10,2013-09-06 00:45:00,
2013-09-05 21:00:00,56.1,54.0,30.09,NE,54,0.0,0.0,94,0.00,,,0.02,weatherlink.com 1.10,2013-09-06 01:00:00,
2013-09-05 21:15:00,55.6,54.0,30.09,NE,54,0.0,1.0,95,0.00,,,0.02,weatherlink.com 1.10,2013-09-06 01:15:00,
2013-09-05 21:30:00,55.6,54.0,30.10,NE,54,0.0,0.0,95,0.00,,,0.02,weatherlink.com 1.10,2013-09-06 01:30:00,
2013-09-05 21:45:00,55.3,54.0,30.11,NE,54,0.0,0.0,95,0.00,,,0.02,weatherlink.com 1.10,2013-09-06 01:45:00,
2013-09-05 22:00:00,55.0,54.0,30.11,NE,54,0.0,1.0,95,0.00,,,0.02,weatherlink.com 1.10,2013-09-06 02:00:00,
2013-09-05 22:15:00,54.3,53.0,30.12,NE,54,0.0,0.0,95,0.00,,,0.02,weatherlink.com 1.10,2013-09-06 02:15:00,
2013-09-05 22:30:00,54.1,53.0,30.12,NE,54,0.0,1.0,96,0.00,,,0.02,weatherlink.com 1.10,2013-09-06 02:30:00,
2013-09-05 22:45:00,53.8,53.0,30.13,NE,54,0.0,0.0,96,0.00,,,0.02,weatherlink.com 1.10,2013-09-06 02:45:00,
2013-09-05 23:00:00,53.1,52.0,30.13,NE,54,0.0,0.0,95,0.00,,,0.02,weatherlink.com 1.10,2013-09-06 03:00:00,
2013-09-05 23:15:00,52.4,51.0,30.13,NE,54,0.0,0.0,95,0.00,,,0.02,weatherlink.com 1.10,2013-09-06 03:15:00,
2013-09-05 23:31:00,51.7,50.0,30.13,NE,54,0.0,0.0,95,0.00,,,0.02,weatherlink.com 1.10,2013-09-06 03:31:00,
2013-09-05 23:46:00,50.9,50.0,30.13,NE,54,0.0,0.0,95,0.00,,,0.02,weatherlink.com 1.10,2013-09-06 03:46:00,